createdAt,value
2018-05-17T00:00:12.658Z,25.66
2018-05-17T00:01:12.686Z,25.61
2018-05-17T00:02:12.717Z,25.61
2018-05-17T00:03:12.744Z,25.73
2018-05-17T00:04:12.771Z,25.76
2018-05-17T00:05:12.801Z,25.67
2018-05-17T00:06:12.830Z,25.71
2018-05-17T00:07:12.859Z,25.70
2018-05-17T00:08:12.897Z,25.76
2018-05-17T00:09:12.915Z,25.73
2018-05-17T00:10:12.944Z,25.66
2018-05-17T00:11:12.973Z,25.74
2018-05-17T00:12:13.000Z,25.74
2018-05-17T00:13:13.029Z,25.76
2018-05-17T00:14:13.058Z,25.71
2018-05-17T00:15:13.087Z,25.67
2018-05-17T00:16:13.127Z,25.71
2018-05-17T00:17:13.144Z,25.70
2018-05-17T00:18:13.173Z,25.66
2018-05-17T00:19:13.201Z,25.62
2018-05-17T00:20:13.229Z,25.56
2018-05-17T00:21:13.259Z,25.54
2018-05-17T00:22:13.291Z,25.63
2018-05-17T00:23:13.333Z,25.52
2018-05-17T00:24:13.347Z,25.67
2018-05-17T00:25:13.371Z,25.61
2018-05-17T00:26:13.401Z,25.59
2018-05-17T00:27:13.429Z,25.61
2018-05-17T00:28:13.495Z,25.61
2018-05-17T00:29:13.487Z,25.56
2018-05-17T00:30:13.529Z,25.52
2018-05-17T00:31:13.543Z,25.52
2018-05-17T00:32:13.576Z,25.52
2018-05-17T00:33:13.601Z,25.54
2018-05-17T00:34:13.629Z,25.51
2018-05-17T00:35:13.658Z,25.51
2018-05-17T00:36:13.686Z,25.59
2018-05-17T00:37:13.715Z,25.46
2018-05-17T00:38:13.745Z,25.49
2018-05-17T00:39:13.773Z,25.48
2018-05-17T00:40:13.800Z,25.44
2018-05-17T00:41:13.830Z,25.44
2018-05-17T00:42:13.891Z,25.49
2018-05-17T00:43:13.887Z,25.43
2018-05-17T00:44:13.914Z,25.46
2018-05-17T00:45:13.943Z,25.41
2018-05-17T00:46:13.972Z,25.54
2018-05-17T00:47:14.018Z,25.49
2018-05-17T00:48:14.032Z,25.46
2018-05-17T00:49:14.059Z,25.43
2018-05-17T00:50:14.087Z,25.44
2018-05-17T00:51:14.115Z,25.44
2018-05-17T00:52:14.143Z,25.52
2018-05-17T00:53:14.187Z,25.46
2018-05-17T00:54:14.201Z,25.46
2018-05-17T00:55:14.229Z,25.52
2018-05-17T00:56:14.257Z,25.52
2018-05-17T00:57:14.286Z,25.52
2018-05-17T00:58:14.353Z,25.49
2018-05-17T00:59:14.344Z,25.52
2018-05-17T01:00:14.372Z,25.54
2018-05-17T01:01:14.404Z,25.55
2018-05-17T01:02:14.429Z,25.52
2018-05-17T01:03:14.458Z,25.62
2018-05-17T01:04:14.486Z,25.51
2018-05-17T01:05:14.515Z,25.63
2018-05-17T01:06:14.543Z,25.61
2018-05-17T01:07:14.573Z,25.68
2018-05-17T01:08:14.602Z,25.66
2018-05-17T01:09:14.628Z,25.55
2018-05-17T01:10:14.657Z,25.68
2018-05-17T01:11:14.688Z,25.62
2018-05-17T01:12:14.717Z,25.61
2018-05-17T01:13:14.743Z,25.59
2018-05-17T01:14:14.771Z,25.59
2018-05-17T01:15:14.800Z,25.56
2018-05-17T01:16:14.828Z,25.56
2018-05-17T01:17:14.856Z,25.59
2018-05-17T01:18:14.885Z,25.55
2018-05-17T01:19:14.914Z,25.52
2018-05-17T01:20:14.941Z,25.51
2018-05-17T01:21:14.971Z,25.51
2018-05-17T01:22:15.020Z,25.43
2018-05-17T01:23:15.029Z,25.41
2018-05-17T01:24:15.055Z,25.46
2018-05-17T01:25:15.085Z,25.54
2018-05-17T01:26:15.114Z,25.41
2018-05-17T01:27:15.142Z,25.49
2018-05-17T01:28:15.170Z,25.36
2018-05-17T01:29:15.200Z,25.40
2018-05-17T01:30:15.227Z,25.41
2018-05-17T01:31:15.256Z,25.43
2018-05-17T01:32:15.284Z,25.40
2018-05-17T01:33:15.313Z,25.52
2018-05-17T01:34:15.341Z,25.40
2018-05-17T01:35:15.370Z,25.43
2018-05-17T01:36:15.427Z,25.46
2018-05-17T01:37:15.432Z,25.40
2018-05-17T01:38:15.457Z,25.49
2018-05-17T01:39:15.485Z,25.41
2018-05-17T01:40:15.512Z,25.44
2018-05-17T01:41:15.540Z,25.40
2018-05-17T01:42:15.653Z,25.49
2018-05-17T01:43:15.599Z,25.46
2018-05-17T01:44:15.626Z,25.52
2018-05-17T01:45:15.657Z,25.52
2018-05-17T01:46:15.684Z,25.55
2018-05-17T01:47:15.713Z,25.51
2018-05-17T01:48:15.740Z,25.51
2018-05-17T01:49:15.788Z,25.46
2018-05-17T01:50:15.801Z,25.56
2018-05-17T01:51:15.858Z,25.54
2018-05-17T01:52:15.855Z,25.44
2018-05-17T01:53:15.882Z,25.43
2018-05-17T01:54:15.911Z,25.44
2018-05-17T01:55:15.940Z,25.55
2018-05-17T01:56:15.968Z,25.49
2018-05-17T01:57:16.011Z,25.44
2018-05-17T01:58:16.025Z,25.55
2018-05-17T01:59:16.054Z,25.51
2018-05-17T02:00:16.108Z,25.55
2018-05-17T02:01:16.111Z,25.56
2018-05-17T02:02:16.139Z,25.62
2018-05-17T02:03:16.173Z,25.59
2018-05-17T02:04:16.196Z,25.56
2018-05-17T02:05:16.224Z,25.68
2018-05-17T02:06:16.254Z,25.51
2018-05-17T02:07:16.291Z,25.63
2018-05-17T02:08:16.310Z,25.62
2018-05-17T02:09:16.339Z,25.56
2018-05-17T02:10:16.368Z,25.56
2018-05-17T02:11:16.396Z,25.51
2018-05-17T02:12:16.424Z,25.59
2018-05-17T02:13:16.453Z,25.58
2018-05-17T02:14:16.481Z,25.66
2018-05-17T02:15:16.529Z,25.54
2018-05-17T02:16:16.539Z,25.55
2018-05-17T02:17:16.668Z,25.70
2018-05-17T02:18:16.595Z,25.58
2018-05-17T02:19:16.692Z,25.61
2018-05-17T02:20:16.681Z,25.62
2018-05-17T02:21:16.684Z,25.56
2018-05-17T02:22:16.735Z,25.55
2018-05-17T02:23:16.740Z,25.52
2018-05-17T02:24:16.768Z,25.56
2018-05-17T02:25:16.794Z,25.52
2018-05-17T02:26:16.823Z,25.58
2018-05-17T02:27:16.852Z,25.52
2018-05-17T02:28:16.880Z,25.54
2018-05-17T02:29:16.929Z,25.54
2018-05-17T02:30:16.937Z,25.49
2018-05-17T02:31:16.967Z,25.58
2018-05-17T02:32:16.993Z,25.59
2018-05-17T02:33:17.028Z,25.61
2018-05-17T02:34:17.072Z,25.62
2018-05-17T02:35:17.081Z,25.67
2018-05-17T02:36:17.109Z,25.58
2018-05-17T02:37:17.137Z,25.67
2018-05-17T02:38:17.169Z,25.68
2018-05-17T02:39:17.201Z,25.56
2018-05-17T02:40:17.226Z,25.66
2018-05-17T02:41:17.253Z,25.71
2018-05-17T02:42:17.304Z,25.74
2018-05-17T02:43:17.402Z,25.80
2018-05-17T02:44:17.337Z,25.77
2018-05-17T02:45:17.365Z,25.80
2018-05-17T02:46:17.393Z,25.78
2018-05-17T02:47:17.423Z,25.92
2018-05-17T02:48:17.467Z,25.89
2018-05-17T02:49:17.505Z,25.88
2018-05-17T02:50:17.507Z,25.83
2018-05-17T02:51:17.536Z,25.96
2018-05-17T02:52:17.567Z,26.01
2018-05-17T02:53:17.593Z,25.96
2018-05-17T02:54:17.621Z,25.92
2018-05-17T02:55:17.652Z,25.96
2018-05-17T02:56:17.678Z,25.99
2018-05-17T02:57:17.707Z,26.01
2018-05-17T02:58:17.738Z,26.01
2018-05-17T02:59:17.766Z,26.03
2018-05-17T03:00:17.792Z,26.03
2018-05-17T03:01:17.821Z,26.01
2018-05-17T03:02:17.885Z,25.95
2018-05-17T03:03:17.879Z,26.10
2018-05-17T03:04:17.907Z,26.01
2018-05-17T03:05:17.935Z,26.06
2018-05-17T03:06:17.963Z,26.13
2018-05-17T03:07:18.032Z,26.11
2018-05-17T03:08:18.020Z,26.10
2018-05-17T03:09:18.048Z,26.06
2018-05-17T03:10:18.081Z,26.04
2018-05-17T03:11:18.106Z,26.10
2018-05-17T03:12:18.135Z,26.08
2018-05-17T03:13:18.170Z,26.07
2018-05-17T03:14:18.192Z,26.15
2018-05-17T03:15:18.228Z,26.11
2018-05-17T03:16:18.249Z,26.08
2018-05-17T03:17:18.277Z,26.13
2018-05-17T03:18:18.308Z,26.11
2018-05-17T03:19:18.339Z,26.11
2018-05-17T03:20:18.364Z,26.13
2018-05-17T03:21:18.392Z,26.10
2018-05-17T03:22:18.425Z,26.10
2018-05-17T03:23:18.452Z,26.06
2018-05-17T03:24:18.476Z,26.06
2018-05-17T03:25:18.506Z,26.18
2018-05-17T03:26:18.535Z,26.08
2018-05-17T03:27:18.564Z,26.15
2018-05-17T03:28:18.593Z,26.11
2018-05-17T03:29:18.620Z,26.07
2018-05-17T03:30:18.650Z,26.10
2018-05-17T03:31:18.679Z,26.10
2018-05-17T03:32:18.706Z,26.04
2018-05-17T03:33:18.740Z,26.08
2018-05-17T03:34:18.764Z,26.16
2018-05-17T03:35:18.830Z,26.15
2018-05-17T03:36:18.820Z,26.11
2018-05-17T03:37:18.849Z,26.08
2018-05-17T03:38:18.878Z,26.11
2018-05-17T03:39:18.907Z,26.10
2018-05-17T03:40:18.939Z,26.13
2018-05-17T03:41:18.963Z,26.08
2018-05-17T03:42:18.992Z,26.07
2018-05-17T03:43:19.021Z,26.13
2018-05-17T03:44:19.049Z,26.10
2018-05-17T03:45:19.077Z,26.11
2018-05-17T03:46:19.106Z,26.07
2018-05-17T03:47:19.139Z,26.15
2018-05-17T03:48:19.163Z,26.13
2018-05-17T03:49:19.192Z,26.10
2018-05-17T03:50:19.221Z,26.10
2018-05-17T03:51:19.249Z,26.18
2018-05-17T03:52:19.277Z,26.30
2018-05-17T03:53:19.307Z,26.29
2018-05-17T03:54:19.335Z,26.27
2018-05-17T03:55:19.364Z,26.33
2018-05-17T03:56:19.392Z,26.37
2018-05-17T03:57:19.420Z,26.36
2018-05-17T03:58:19.450Z,26.33
2018-05-17T03:59:19.479Z,26.44
2018-05-17T04:00:19.508Z,26.48
2018-05-17T04:01:19.630Z,26.61
2018-05-17T04:02:19.563Z,26.59
2018-05-17T04:03:19.593Z,26.67
2018-05-17T04:04:19.621Z,26.52
2018-05-17T04:05:19.649Z,26.55
2018-05-17T04:06:19.680Z,26.49
2018-05-17T04:07:19.734Z,26.51
2018-05-17T04:08:19.735Z,26.53
2018-05-17T04:09:19.764Z,26.45
2018-05-17T04:10:19.859Z,26.49
2018-05-17T04:11:19.822Z,26.48
2018-05-17T04:12:19.874Z,26.37
2018-05-17T04:13:19.879Z,26.45
2018-05-17T04:14:19.907Z,26.42
2018-05-17T04:15:19.939Z,26.42
2018-05-17T04:16:19.965Z,26.44
2018-05-17T04:17:19.996Z,26.33
2018-05-17T04:18:20.024Z,26.39
2018-05-17T04:19:20.051Z,26.39
2018-05-17T04:20:20.080Z,26.41
2018-05-17T04:21:20.108Z,26.34
2018-05-17T04:22:20.164Z,26.46
2018-05-17T04:23:20.166Z,26.45
2018-05-17T04:24:20.197Z,26.41
2018-05-17T04:25:20.223Z,26.37
2018-05-17T04:26:20.252Z,26.46
2018-05-17T04:27:20.281Z,26.39
2018-05-17T04:28:20.309Z,26.33
2018-05-17T04:29:20.502Z,26.39
2018-05-17T04:30:20.403Z,26.41
2018-05-17T04:31:20.395Z,26.45
2018-05-17T04:32:20.424Z,26.44
2018-05-17T04:33:20.452Z,26.48
2018-05-17T04:34:20.480Z,26.48
2018-05-17T04:35:20.510Z,26.41
2018-05-17T04:36:20.541Z,26.41
2018-05-17T04:37:20.609Z,26.41
2018-05-17T04:38:20.596Z,26.39
2018-05-17T04:39:20.652Z,26.44
2018-05-17T04:40:20.656Z,26.49
2018-05-17T04:41:20.682Z,26.48
2018-05-17T04:42:20.712Z,26.46
2018-05-17T04:43:20.740Z,26.51
2018-05-17T04:44:20.768Z,26.46
2018-05-17T04:45:20.797Z,26.51
2018-05-17T04:46:20.826Z,26.48
2018-05-17T04:47:20.854Z,26.48
2018-05-17T04:48:20.895Z,26.49
2018-05-17T04:49:20.911Z,26.52
2018-05-17T04:50:20.941Z,26.48
2018-05-17T04:51:20.971Z,26.51
2018-05-17T04:52:20.998Z,26.56
2018-05-17T04:53:21.026Z,26.49
2018-05-17T04:54:21.076Z,26.53
2018-05-17T04:55:21.084Z,26.52
2018-05-17T04:56:21.115Z,26.48
2018-05-17T04:57:21.142Z,26.53
2018-05-17T04:58:21.170Z,26.53
2018-05-17T04:59:21.199Z,26.59
2018-05-17T05:00:21.228Z,26.56
2018-05-17T05:01:21.257Z,26.70
2018-05-17T05:02:21.285Z,26.68
2018-05-17T05:03:21.318Z,26.83
2018-05-17T05:04:21.343Z,26.91
2018-05-17T05:05:21.372Z,26.79
2018-05-17T05:06:21.402Z,26.83
2018-05-17T05:07:21.475Z,26.83
2018-05-17T05:08:21.479Z,26.81
2018-05-17T05:09:21.525Z,26.85
2018-05-17T05:10:21.516Z,26.82
2018-05-17T05:11:21.550Z,26.89
2018-05-17T05:12:21.573Z,26.83
2018-05-17T05:13:21.602Z,26.85
2018-05-17T05:14:21.632Z,26.88
2018-05-17T05:15:21.660Z,26.81
2018-05-17T05:16:21.689Z,26.92
2018-05-17T05:17:21.719Z,26.82
2018-05-17T05:18:21.749Z,26.92
2018-05-17T05:19:21.799Z,26.89
2018-05-17T05:20:21.804Z,26.79
2018-05-17T05:21:21.836Z,26.91
2018-05-17T05:22:21.863Z,26.82
2018-05-17T05:23:21.891Z,26.97
2018-05-17T05:24:21.920Z,26.89
2018-05-17T05:25:21.974Z,26.88
2018-05-17T05:26:21.977Z,26.92
2018-05-17T05:27:22.013Z,26.91
2018-05-17T05:28:22.042Z,26.89
2018-05-17T05:29:22.096Z,26.91
2018-05-17T05:30:22.094Z,26.89
2018-05-17T05:31:22.122Z,26.89
2018-05-17T05:32:22.151Z,26.97
2018-05-17T05:33:22.180Z,26.89
2018-05-17T05:34:22.209Z,26.86
2018-05-17T05:35:22.239Z,26.89
2018-05-17T05:36:22.306Z,26.97
2018-05-17T05:37:22.302Z,26.91
2018-05-17T05:38:22.325Z,26.91
2018-05-17T05:39:22.354Z,26.91
2018-05-17T05:40:22.382Z,26.86
2018-05-17T05:41:22.411Z,26.85
2018-05-17T05:42:22.444Z,26.85
2018-05-17T05:43:22.574Z,26.76
2018-05-17T05:44:22.523Z,26.81
2018-05-17T05:45:22.527Z,26.86
2018-05-17T05:46:22.555Z,26.85
2018-05-17T05:47:22.585Z,26.89
2018-05-17T05:48:22.613Z,26.79
2018-05-17T05:49:22.746Z,26.88
2018-05-17T05:50:22.672Z,26.82
2018-05-17T05:51:22.701Z,26.82
2018-05-17T05:52:22.729Z,26.83
2018-05-17T05:53:22.758Z,26.91
2018-05-17T05:54:22.793Z,26.89
2018-05-17T05:55:22.816Z,26.88
2018-05-17T05:56:22.847Z,26.89
2018-05-17T05:57:22.875Z,26.92
2018-05-17T05:58:22.903Z,27.01
2018-05-17T05:59:22.935Z,26.97
2018-05-17T06:00:22.965Z,26.91
2018-05-17T06:01:22.989Z,26.93
2018-05-17T06:02:23.104Z,27.04
2018-05-17T06:03:23.049Z,27.00
2018-05-17T06:04:23.076Z,26.96
2018-05-17T06:05:23.117Z,27.04
2018-05-17T06:06:23.134Z,27.04
2018-05-17T06:07:23.163Z,27.00
2018-05-17T06:08:23.196Z,26.88
2018-05-17T06:09:23.256Z,26.89
2018-05-17T06:10:23.254Z,26.85
2018-05-17T06:11:23.300Z,26.83
2018-05-17T06:12:23.307Z,26.85
2018-05-17T06:13:23.411Z,26.79
2018-05-17T06:14:23.367Z,26.79
2018-05-17T06:15:23.398Z,26.78
2018-05-17T06:16:23.449Z,26.82
2018-05-17T06:17:23.525Z,26.76
2018-05-17T06:18:23.481Z,26.78
2018-05-17T06:19:23.510Z,26.81
2018-05-17T06:20:23.540Z,26.74
2018-05-17T06:21:23.609Z,26.71
2018-05-17T06:22:23.597Z,26.66
2018-05-17T06:23:23.625Z,26.60
2018-05-17T06:24:23.653Z,26.68
2018-05-17T06:25:23.691Z,26.67
2018-05-17T06:26:23.712Z,26.59
2018-05-17T06:27:23.742Z,26.71
2018-05-17T06:28:23.770Z,26.68
2018-05-17T06:29:23.799Z,26.68
2018-05-17T06:30:23.839Z,26.68
2018-05-17T06:31:23.857Z,26.67
2018-05-17T06:32:23.915Z,26.67
2018-05-17T06:33:23.915Z,26.67
2018-05-17T06:34:23.966Z,26.78
2018-05-17T06:35:23.976Z,26.68
2018-05-17T06:36:24.004Z,26.68
2018-05-17T06:37:24.030Z,26.70
2018-05-17T06:38:24.059Z,26.73
2018-05-17T06:39:24.090Z,26.74
2018-05-17T06:40:24.118Z,26.68
2018-05-17T06:41:24.162Z,26.71
2018-05-17T06:42:24.181Z,26.73
2018-05-17T06:43:24.208Z,26.71
2018-05-17T06:44:24.232Z,26.73
2018-05-17T06:45:24.271Z,26.67
2018-05-17T06:46:24.290Z,26.71
2018-05-17T06:47:24.323Z,26.82
2018-05-17T06:48:24.347Z,26.74
2018-05-17T06:49:24.377Z,26.78
2018-05-17T06:50:24.409Z,26.68
2018-05-17T06:51:24.436Z,26.66
2018-05-17T06:52:24.465Z,26.68
2018-05-17T06:53:24.496Z,26.67
2018-05-17T06:54:24.521Z,26.68
2018-05-17T06:55:24.550Z,26.73
2018-05-17T06:56:24.600Z,26.76
2018-05-17T06:57:24.640Z,26.83
2018-05-17T06:58:24.644Z,26.79
2018-05-17T06:59:24.697Z,26.85
2018-05-17T07:00:24.702Z,26.92
2018-05-17T07:01:24.725Z,27.03
2018-05-17T07:02:24.757Z,27.04
2018-05-17T07:03:24.783Z,27.03
2018-05-17T07:04:24.809Z,26.96
2018-05-17T07:05:24.855Z,27.08
2018-05-17T07:06:24.870Z,27.07
2018-05-17T07:07:24.897Z,27.04
2018-05-17T07:08:24.960Z,27.04
2018-05-17T07:09:24.956Z,27.07
2018-05-17T07:10:25.007Z,27.13
2018-05-17T07:11:25.013Z,27.19
2018-05-17T07:12:25.041Z,27.10
2018-05-17T07:13:25.076Z,27.15
2018-05-17T07:14:25.101Z,27.08
2018-05-17T07:15:25.131Z,27.15
2018-05-17T07:16:25.161Z,27.18
2018-05-17T07:17:25.189Z,27.23
2018-05-17T07:18:25.349Z,27.10
2018-05-17T07:19:25.292Z,27.11
2018-05-17T07:20:25.274Z,27.15
2018-05-17T07:21:25.307Z,27.10
2018-05-17T07:22:25.335Z,27.10
2018-05-17T07:23:25.361Z,27.19
2018-05-17T07:24:25.418Z,27.13
2018-05-17T07:25:25.419Z,27.23
2018-05-17T07:26:25.453Z,27.13
2018-05-17T07:27:25.480Z,27.25
2018-05-17T07:28:25.506Z,27.25
2018-05-17T07:29:25.535Z,27.16
2018-05-17T07:30:25.565Z,27.26
2018-05-17T07:31:25.667Z,27.11
2018-05-17T07:32:25.624Z,27.23
2018-05-17T07:33:25.651Z,27.10
2018-05-17T07:34:25.681Z,27.11
2018-05-17T07:35:25.720Z,27.08
2018-05-17T07:36:25.738Z,27.19
2018-05-17T07:37:25.768Z,27.13
2018-05-17T07:38:25.798Z,27.15
2018-05-17T07:39:25.827Z,27.15
2018-05-17T07:40:25.855Z,27.05
2018-05-17T07:41:25.912Z,27.11
2018-05-17T07:42:25.913Z,27.15
2018-05-17T07:43:25.947Z,27.18
2018-05-17T07:44:25.971Z,27.22
2018-05-17T07:45:26.004Z,27.13
2018-05-17T07:46:26.071Z,27.15
2018-05-17T07:47:26.062Z,27.05
2018-05-17T07:48:26.088Z,27.13
2018-05-17T07:49:26.127Z,27.15
2018-05-17T07:50:26.148Z,27.11
2018-05-17T07:51:26.179Z,27.18
2018-05-17T07:52:26.207Z,27.11
2018-05-17T07:53:26.277Z,27.10
2018-05-17T07:54:26.263Z,27.11
2018-05-17T07:55:26.318Z,27.22
2018-05-17T07:56:26.335Z,27.18
2018-05-17T07:57:26.351Z,27.08
2018-05-17T07:58:26.383Z,27.16
2018-05-17T07:59:26.430Z,27.07
2018-05-17T08:00:26.493Z,27.16
2018-05-17T08:01:26.499Z,27.15
2018-05-17T08:02:26.497Z,27.13
2018-05-17T08:03:26.524Z,27.15
2018-05-17T08:04:26.553Z,27.13
2018-05-17T08:05:26.582Z,27.13
2018-05-17T08:06:26.624Z,27.16
2018-05-17T08:07:26.646Z,27.11
2018-05-17T08:08:26.678Z,27.18
2018-05-17T08:09:26.748Z,27.15
2018-05-17T08:10:26.729Z,27.10
2018-05-17T08:11:26.756Z,27.15
2018-05-17T08:12:26.840Z,27.07
2018-05-17T08:13:26.813Z,27.10
2018-05-17T08:14:26.846Z,27.04
2018-05-17T08:15:26.871Z,27.03
2018-05-17T08:16:26.937Z,26.96
2018-05-17T08:17:26.930Z,27.01
2018-05-17T08:18:26.996Z,26.89
2018-05-17T08:19:26.995Z,26.92
2018-05-17T08:20:27.016Z,26.91
2018-05-17T08:21:27.048Z,26.91
2018-05-17T08:22:27.076Z,26.92
2018-05-17T08:23:27.105Z,26.89
2018-05-17T08:24:27.132Z,26.92
2018-05-17T08:25:27.162Z,26.92
2018-05-17T08:26:27.200Z,26.83
2018-05-17T08:27:27.221Z,26.86
2018-05-17T08:28:27.254Z,26.91
2018-05-17T08:29:27.278Z,26.76
2018-05-17T08:30:27.307Z,26.83
2018-05-17T08:31:27.345Z,26.78
2018-05-17T08:32:27.370Z,26.76
2018-05-17T08:33:27.397Z,26.79
2018-05-17T08:34:27.423Z,26.82
2018-05-17T08:35:27.452Z,26.79
2018-05-17T08:36:27.605Z,26.81
2018-05-17T08:37:27.510Z,26.83
2018-05-17T08:38:27.579Z,26.83
2018-05-17T08:39:27.571Z,26.79
2018-05-17T08:40:27.599Z,26.79
2018-05-17T08:41:27.625Z,26.78
2018-05-17T08:42:27.659Z,26.76
2018-05-17T08:43:27.699Z,26.74
2018-05-17T08:44:27.712Z,26.79
2018-05-17T08:45:27.742Z,26.85
2018-05-17T08:46:27.854Z,26.82
2018-05-17T08:47:27.804Z,26.74
2018-05-17T08:48:27.834Z,26.73
2018-05-17T08:49:27.859Z,26.74
2018-05-17T08:50:27.887Z,26.71
2018-05-17T08:51:27.916Z,26.70
2018-05-17T08:52:27.949Z,26.71
2018-05-17T08:53:27.989Z,26.71
2018-05-17T08:54:28.024Z,26.70
2018-05-17T08:55:28.032Z,26.67
2018-05-17T08:56:28.072Z,26.68
2018-05-17T08:57:28.090Z,26.67
2018-05-17T08:58:28.125Z,26.76
2018-05-17T08:59:28.147Z,26.81
2018-05-17T09:00:28.176Z,26.79
2018-05-17T09:01:28.205Z,26.73
2018-05-17T09:02:28.236Z,26.81
2018-05-17T09:03:28.264Z,26.83
2018-05-17T09:04:28.294Z,26.79
2018-05-17T09:05:28.329Z,26.76
2018-05-17T09:06:28.350Z,26.83
2018-05-17T09:07:28.389Z,26.81
2018-05-17T09:08:28.411Z,26.81
2018-05-17T09:09:28.461Z,26.89
2018-05-17T09:10:28.486Z,26.78
2018-05-17T09:11:28.506Z,26.91
2018-05-17T09:12:28.531Z,26.82
2018-05-17T09:13:28.599Z,26.91
2018-05-17T09:14:28.590Z,26.91
2018-05-17T09:15:28.615Z,26.93
2018-05-17T09:16:28.645Z,26.97
2018-05-17T09:17:28.693Z,27.00
2018-05-17T09:18:28.733Z,26.93
2018-05-17T09:19:28.732Z,27.01
2018-05-17T09:20:28.823Z,26.91
2018-05-17T09:21:28.783Z,26.98
2018-05-17T09:22:28.816Z,26.98
2018-05-17T09:23:28.847Z,27.03
2018-05-17T09:24:28.875Z,27.03
2018-05-17T09:25:28.899Z,27.13
2018-05-17T09:26:28.929Z,27.11
2018-05-17T09:27:28.962Z,27.07
2018-05-17T09:28:28.989Z,27.05
2018-05-17T09:29:29.040Z,27.04
2018-05-17T09:30:29.045Z,27.05
2018-05-17T09:31:29.074Z,27.10
2018-05-17T09:32:29.102Z,27.05
2018-05-17T09:33:29.131Z,27.13
2018-05-17T09:34:29.169Z,27.03
2018-05-17T09:35:29.190Z,27.04
2018-05-17T09:36:29.219Z,27.08
2018-05-17T09:37:29.248Z,27.11
2018-05-17T09:38:29.277Z,27.11
2018-05-17T09:39:29.306Z,27.05
2018-05-17T09:40:29.333Z,27.01
2018-05-17T09:41:29.462Z,27.10
2018-05-17T09:42:29.393Z,27.08
2018-05-17T09:43:29.451Z,27.07
2018-05-17T09:44:29.450Z,27.05
2018-05-17T09:45:29.481Z,27.05
2018-05-17T09:46:29.536Z,27.03
2018-05-17T09:47:29.562Z,26.92
2018-05-17T09:48:29.566Z,27.01
2018-05-17T09:49:29.623Z,27.05
2018-05-17T09:50:29.624Z,27.00
2018-05-17T09:51:29.653Z,26.98
2018-05-17T09:52:29.683Z,27.01
2018-05-17T09:53:29.712Z,26.97
2018-05-17T09:54:29.740Z,27.00
2018-05-17T09:55:29.770Z,26.98
2018-05-17T09:56:29.800Z,26.91
2018-05-17T09:57:29.828Z,27.01
2018-05-17T09:58:29.856Z,26.98
2018-05-17T09:59:29.886Z,26.96
2018-05-17T10:00:29.913Z,26.97
2018-05-17T10:01:29.947Z,27.01
2018-05-17T10:02:29.979Z,27.01
2018-05-17T10:03:30.001Z,26.91
2018-05-17T10:04:30.030Z,26.96
2018-05-17T10:05:30.059Z,27.00
2018-05-17T10:06:30.088Z,26.97
2018-05-17T10:07:30.118Z,26.98
2018-05-17T10:08:30.145Z,26.92
2018-05-17T10:09:30.175Z,26.92
2018-05-17T10:10:30.206Z,26.97
2018-05-17T10:11:30.233Z,26.97
2018-05-17T10:12:30.261Z,27.00
2018-05-17T10:13:30.292Z,26.91
2018-05-17T10:14:30.328Z,26.98
2018-05-17T10:15:30.469Z,27.00
2018-05-17T10:16:30.377Z,26.98
2018-05-17T10:17:30.408Z,26.98
2018-05-17T10:18:30.440Z,27.01
2018-05-17T10:19:30.469Z,27.11
2018-05-17T10:20:30.494Z,27.03
2018-05-17T10:21:30.525Z,27.04
2018-05-17T10:22:30.563Z,26.92
2018-05-17T10:23:30.581Z,27.07
2018-05-17T10:24:30.611Z,27.05
2018-05-17T10:25:30.641Z,27.00
2018-05-17T10:26:30.668Z,27.01
2018-05-17T10:27:30.708Z,27.03
2018-05-17T10:28:30.725Z,27.04
2018-05-17T10:29:30.851Z,27.07
2018-05-17T10:30:30.783Z,26.97
2018-05-17T10:31:30.813Z,27.01
2018-05-17T10:32:30.873Z,27.00
2018-05-17T10:33:30.872Z,27.03
2018-05-17T10:34:30.900Z,27.00
2018-05-17T10:35:30.930Z,27.07
2018-05-17T10:36:30.957Z,27.03
2018-05-17T10:37:31.013Z,27.05
2018-05-17T10:38:31.016Z,26.98
2018-05-17T10:39:31.045Z,27.08
2018-05-17T10:40:31.074Z,27.08
2018-05-17T10:41:31.105Z,27.04
2018-05-17T10:42:31.136Z,27.00
2018-05-17T10:43:31.165Z,27.15
2018-05-17T10:44:31.192Z,27.15
2018-05-17T10:45:31.219Z,27.04
2018-05-17T10:46:31.283Z,27.11
2018-05-17T10:47:31.280Z,27.11
2018-05-17T10:48:31.305Z,27.10
2018-05-17T10:49:31.338Z,27.07
2018-05-17T10:50:31.364Z,27.13
2018-05-17T10:51:31.393Z,27.15
2018-05-17T10:52:31.422Z,27.11
2018-05-17T10:53:31.454Z,27.18
2018-05-17T10:54:31.574Z,27.11
2018-05-17T10:55:31.509Z,27.15
2018-05-17T10:56:31.540Z,27.13
2018-05-17T10:57:31.580Z,27.05
2018-05-17T10:58:31.599Z,27.13
2018-05-17T10:59:31.625Z,27.13
2018-05-17T11:00:31.655Z,27.15
2018-05-17T11:01:31.683Z,27.19
2018-05-17T11:02:31.716Z,27.19
2018-05-17T11:03:31.745Z,27.11
2018-05-17T11:04:31.777Z,27.16
2018-05-17T11:05:31.800Z,27.16
2018-05-17T11:06:31.831Z,27.08
2018-05-17T11:07:31.858Z,27.16
2018-05-17T11:08:31.886Z,27.11
2018-05-17T11:09:31.916Z,27.20
2018-05-17T11:10:31.945Z,27.20
2018-05-17T11:11:32.512Z,27.19
2018-05-17T11:12:32.002Z,27.16
2018-05-17T11:13:32.032Z,27.26
2018-05-17T11:14:32.063Z,27.18
2018-05-17T11:15:32.091Z,27.22
2018-05-17T11:16:32.119Z,27.28
2018-05-17T11:17:32.149Z,27.28
2018-05-17T11:18:32.178Z,27.25
2018-05-17T11:19:32.207Z,27.25
2018-05-17T11:20:32.259Z,27.26
2018-05-17T11:21:32.266Z,27.26
2018-05-17T11:22:32.294Z,27.26
2018-05-17T11:23:32.323Z,27.23
2018-05-17T11:24:32.353Z,27.26
2018-05-17T11:25:32.386Z,27.26
2018-05-17T11:26:32.410Z,27.28
2018-05-17T11:27:32.440Z,27.34
2018-05-17T11:28:32.469Z,27.35
2018-05-17T11:29:32.498Z,27.29
2018-05-17T11:30:32.531Z,27.25
2018-05-17T11:31:32.556Z,27.33
2018-05-17T11:32:32.585Z,27.40
2018-05-17T11:33:32.647Z,27.35
2018-05-17T11:34:32.643Z,27.35
2018-05-17T11:35:32.672Z,27.43
2018-05-17T11:36:32.701Z,27.37
2018-05-17T11:37:32.730Z,27.35
2018-05-17T11:38:32.819Z,27.38
2018-05-17T11:39:32.833Z,27.37
2018-05-17T11:40:32.818Z,27.37
2018-05-17T11:41:32.847Z,27.41
2018-05-17T11:42:32.880Z,27.38
2018-05-17T11:43:32.907Z,27.40
2018-05-17T11:44:32.934Z,27.38
2018-05-17T11:45:32.980Z,27.37
2018-05-17T11:46:32.992Z,27.37
2018-05-17T11:47:33.027Z,27.38
2018-05-17T11:48:33.051Z,27.41
2018-05-17T11:49:33.105Z,27.35
2018-05-17T11:50:33.112Z,27.38
2018-05-17T11:51:33.138Z,27.40
2018-05-17T11:52:33.167Z,27.40
2018-05-17T11:53:33.196Z,27.43
2018-05-17T11:54:33.229Z,27.44
2018-05-17T11:55:33.255Z,27.43
2018-05-17T11:56:33.284Z,27.45
2018-05-17T11:57:33.338Z,27.45
2018-05-17T11:58:33.342Z,27.48
2018-05-17T11:59:33.372Z,27.44
2018-05-17T12:00:33.400Z,27.41
2018-05-17T12:01:33.446Z,27.45
2018-05-17T12:02:33.474Z,27.45
2018-05-17T12:03:33.488Z,27.44
2018-05-17T12:04:33.516Z,27.48
2018-05-17T12:05:33.577Z,27.45
2018-05-17T12:06:33.600Z,27.48
2018-05-17T12:07:33.688Z,27.48
2018-05-17T12:08:33.632Z,27.45
2018-05-17T12:09:33.662Z,27.44
2018-05-17T12:10:33.695Z,27.45
2018-05-17T12:11:33.731Z,27.44
2018-05-17T12:12:33.749Z,27.45
2018-05-17T12:13:33.779Z,27.44
2018-05-17T12:14:33.808Z,27.48
2018-05-17T12:15:33.844Z,27.45
2018-05-17T12:16:33.865Z,27.44
2018-05-17T12:17:33.896Z,27.45
2018-05-17T12:18:33.924Z,27.38
2018-05-17T12:19:33.954Z,27.44
2018-05-17T12:20:33.996Z,27.45
2018-05-17T12:21:34.012Z,27.47
2018-05-17T12:22:34.041Z,27.44
2018-05-17T12:23:34.070Z,27.45
2018-05-17T12:24:34.100Z,27.44
2018-05-17T12:25:34.130Z,27.44
2018-05-17T12:26:34.158Z,27.48
2018-05-17T12:27:34.195Z,27.48
2018-05-17T12:28:34.215Z,27.43
2018-05-17T12:29:34.245Z,27.50
2018-05-17T12:30:34.274Z,27.44
2018-05-17T12:31:34.354Z,27.45
2018-05-17T12:32:34.332Z,27.45
2018-05-17T12:33:34.378Z,27.44
2018-05-17T12:34:34.429Z,27.45
2018-05-17T12:35:34.421Z,27.45
2018-05-17T12:36:34.450Z,27.43
2018-05-17T12:37:34.479Z,27.53
2018-05-17T12:38:34.508Z,27.45
2018-05-17T12:39:34.537Z,27.45
2018-05-17T12:40:34.566Z,27.50
2018-05-17T12:41:34.595Z,27.37
2018-05-17T12:42:34.625Z,27.47
2018-05-17T12:43:34.663Z,27.50
2018-05-17T12:44:34.686Z,27.47
2018-05-17T12:45:34.718Z,27.50
2018-05-17T12:46:34.742Z,27.41
2018-05-17T12:47:34.771Z,27.43
2018-05-17T12:48:34.800Z,27.44
2018-05-17T12:49:34.829Z,27.43
2018-05-17T12:50:34.859Z,27.43
2018-05-17T12:51:34.889Z,27.45
2018-05-17T12:52:34.916Z,27.34